Main page
METAR-TAF:

METAR-TAF

Airports :

Fujairah International Airport

Fujairah, United Arab Emirates

latitude: 25-06N, longitude: 056-20E, elevation: 28 m

Current weather observation

The report was made 47 minutes ago, at 20:00 UTC
Wind 4 kt from the South, varying between Southeast and South/Southwest
Temperature 34°C
Humidity 71%
Pressure 996 hPa
Visibility: 6000 m

METAR: OMFJ 252000Z 19004KT 130V210 6000 NSC 34/28 Q0996 A2942

Time: 00:47 (20:47 UTC)

Forecast

The report was made 3 hours and 47 minutes ago, at 17:00 UTC
Forecast valid from 25 at 18 UTC to 27 at 00 UTC
Wind 4 kt from the West
Visibility: 6000 m
Temporary
from 25 at 20 UTC to 26 at 03 UTC
Visibility: 4000 m
Few clouds at a height of 2000 ft
haze
Becoming
from 26 at 06 UTC to 26 at 08 UTC
Wind 8 kt from the East
Becoming
from 26 at 14 UTC to 26 at 16 UTC
Wind 3 kt from variable directions

TAF: OMFJ 251700Z 2518/2700 26004KT 6000 NSC TEMPO 2520/2603 4000 HZ FEW020 BECMG 2606/2608 10008KT BECMG 2614/2616 VRB03KT

Weather observations and forecasts of more than 4000 airports (METAR and TAF reports).

The available stations are represented by yellow and red dots on the map.

Hover mouse over dot to see the name of the station.

Then click to see weather observations and forecasts.

To change the map : click on the green buttons with a black cross to zoom in, on the green button with a dash to zoom out, or on the green arrows for adjacent maps.


METAR-TAF: